createdAt,value
2018-11-14T00:00:31.950Z,34.60
2018-11-14T00:03:01.860Z,32.87
2018-11-14T00:05:30.521Z,37.63
2018-11-14T00:07:59.271Z,38.40
2018-11-14T00:10:27.893Z,35.00
2018-11-14T00:12:56.509Z,41.07
2018-11-14T00:15:26.120Z,41.60
2018-11-14T00:17:54.887Z,40.93
2018-11-14T00:20:23.671Z,42.70
2018-11-14T00:22:52.572Z,42.50
2018-11-14T00:25:21.207Z,39.77
2018-11-14T00:27:49.933Z,39.43
2018-11-14T00:30:22.879Z,43.00
2018-11-14T00:32:51.550Z,41.83
2018-11-14T00:35:20.182Z,37.97
2018-11-14T00:37:49.296Z,42.23
2018-11-14T00:40:18.922Z,37.27
2018-11-14T00:42:48.003Z,37.63
2018-11-14T00:45:19.245Z,36.87
2018-11-14T00:47:48.647Z,38.67
2018-11-14T00:50:18.022Z,39.10
2018-11-14T00:52:46.936Z,38.37
2018-11-14T00:55:17.626Z,41.20
2018-11-14T00:57:47.293Z,38.93
2018-11-14T01:00:18.552Z,41.80
2018-11-14T01:02:47.320Z,42.73
2018-11-14T01:05:17.045Z,37.67
2018-11-14T01:07:45.771Z,39.00
2018-11-14T01:10:16.304Z,38.33
2018-11-14T01:12:45.625Z,41.83
2018-11-14T01:15:16.375Z,38.97
2018-11-14T01:17:45.020Z,39.83
2018-11-14T01:20:15.369Z,44.60
2018-11-14T01:22:44.560Z,46.80
2018-11-14T01:25:14.473Z,37.90
2018-11-14T01:27:44.007Z,41.73
2018-11-14T01:30:15.207Z,42.77
2018-11-14T01:32:44.857Z,40.30
2018-11-14T01:35:13.676Z,38.20
2018-11-14T01:37:42.344Z,37.33
2018-11-14T01:40:16.232Z,37.73
2018-11-14T01:42:46.949Z,33.80
2018-11-14T01:45:15.616Z,38.60
2018-11-14T01:47:44.354Z,34.33
2018-11-14T01:50:13.011Z,39.47
2018-11-14T01:52:41.651Z,36.50
2018-11-14T01:55:12.382Z,35.93
2018-11-14T01:57:41.028Z,33.93
2018-11-14T02:00:12.428Z,39.30
2018-11-14T02:02:41.171Z,39.33
2018-11-14T02:05:10.315Z,37.00
2018-11-14T02:07:38.947Z,38.23
2018-11-14T02:10:11.229Z,35.57
2018-11-14T02:12:40.487Z,36.77
2018-11-14T02:15:12.248Z,36.17
2018-11-14T02:17:41.755Z,30.00
2018-11-14T02:20:11.051Z,32.97
2018-11-14T02:22:40.035Z,30.73
2018-11-14T02:25:09.538Z,28.67
2018-11-14T02:27:38.147Z,27.97
2018-11-14T02:30:11.366Z,22.53
2018-11-14T02:32:40.132Z,29.10
2018-11-14T02:35:09.116Z,26.87
2018-11-14T02:37:38.197Z,34.07
2018-11-14T02:40:09.013Z,33.10
2018-11-14T02:42:38.668Z,29.73
2018-11-14T02:45:07.589Z,33.23
2018-11-14T02:47:36.219Z,35.47
2018-11-14T02:50:04.963Z,32.97
2018-11-14T02:52:33.607Z,42.13
2018-11-14T02:55:02.243Z,39.27
2018-11-14T02:57:30.893Z,39.77
2018-11-14T02:59:59.527Z,46.43
2018-11-14T03:02:28.165Z,40.80
2018-11-14T03:04:56.842Z,42.27
2018-11-14T03:07:25.461Z,45.17
2018-11-14T03:09:54.123Z,39.17
2018-11-14T03:12:22.881Z,44.57
2018-11-14T03:14:51.544Z,49.17
2018-11-14T03:17:20.187Z,47.10
2018-11-14T03:19:48.876Z,42.00
2018-11-14T03:22:17.505Z,43.53
2018-11-14T03:24:46.123Z,44.87
2018-11-14T03:27:14.837Z,48.43
2018-11-14T03:29:43.475Z,49.23
2018-11-14T03:32:12.133Z,49.40
2018-11-14T03:34:40.821Z,44.43
2018-11-14T03:37:09.445Z,43.10
2018-11-14T03:39:38.093Z,43.13
2018-11-14T03:42:06.783Z,42.47
2018-11-14T03:44:35.388Z,45.13
2018-11-14T03:47:04.079Z,38.30
2018-11-14T03:49:32.738Z,46.03
2018-11-14T03:52:01.381Z,43.47
2018-11-14T03:54:29.996Z,44.53
2018-11-14T03:56:58.693Z,43.53
2018-11-14T03:59:27.310Z,42.57
2018-11-14T04:01:55.979Z,42.97
2018-11-14T04:04:24.619Z,40.47
2018-11-14T04:06:53.310Z,39.73
2018-11-14T04:09:22.079Z,40.93
2018-11-14T04:11:50.686Z,39.17
2018-11-14T04:14:19.421Z,40.27
2018-11-14T04:16:48.075Z,44.00
2018-11-14T04:19:16.738Z,38.93
2018-11-14T04:21:45.420Z,36.73
2018-11-14T04:24:14.058Z,40.30
2018-11-14T04:26:42.771Z,37.03
2018-11-14T04:29:11.450Z,39.43
2018-11-14T04:31:40.090Z,37.43
2018-11-14T04:34:11.458Z,39.73
2018-11-14T04:36:40.148Z,37.40
2018-11-14T04:39:09.873Z,36.10
2018-11-14T04:41:38.527Z,43.73
2018-11-14T04:44:07.483Z,42.33
2018-11-14T04:46:36.188Z,36.70
2018-11-14T04:49:05.032Z,36.40
2018-11-14T04:51:33.700Z,33.30
2018-11-14T04:54:02.322Z,37.03
2018-11-14T04:56:31.010Z,32.30
2018-11-14T04:58:59.684Z,33.33
2018-11-14T05:01:28.304Z,38.53
2018-11-14T05:03:56.990Z,29.63
2018-11-14T05:06:25.690Z,35.80
2018-11-14T05:08:54.377Z,35.17
2018-11-14T05:11:23.085Z,31.20
2018-11-14T05:13:52.076Z,33.50
2018-11-14T05:16:21.007Z,31.93
2018-11-14T05:18:49.706Z,36.20
2018-11-14T05:21:18.358Z,29.87
2018-11-14T05:23:46.972Z,32.77
2018-11-14T05:26:15.665Z,32.03
2018-11-14T05:28:44.286Z,31.20
2018-11-14T05:31:12.978Z,31.80
2018-11-14T05:33:41.622Z,35.13
2018-11-14T05:36:10.260Z,33.67
2018-11-14T05:38:38.904Z,35.27
2018-11-14T05:41:07.549Z,31.93
2018-11-14T05:43:36.185Z,34.10
2018-11-14T05:46:05.208Z,31.77
2018-11-14T05:48:33.875Z,32.87
2018-11-14T05:51:02.681Z,32.10
2018-11-14T05:53:31.377Z,34.43
2018-11-14T05:56:00.069Z,35.73
2018-11-14T05:58:28.745Z,33.97
2018-11-14T06:00:57.469Z,41.43
2018-11-14T06:03:26.125Z,36.43
2018-11-14T06:05:54.733Z,34.07
2018-11-14T06:08:23.369Z,34.87
2018-11-14T06:10:52.213Z,39.30
2018-11-14T06:13:20.881Z,37.60
2018-11-14T06:15:49.569Z,37.03
2018-11-14T06:18:18.249Z,37.17
2018-11-14T06:20:46.883Z,36.77
2018-11-14T06:23:15.551Z,35.33
2018-11-14T06:25:44.329Z,36.47
2018-11-14T06:28:14.583Z,39.30
2018-11-14T06:30:43.297Z,38.37
2018-11-14T06:33:12.681Z,45.60
2018-11-14T06:35:41.472Z,39.90
2018-11-14T06:38:10.226Z,39.80
2018-11-14T06:40:39.690Z,37.87
2018-11-14T06:43:09.278Z,40.40
2018-11-14T06:45:38.161Z,48.53
2018-11-14T06:48:07.109Z,43.87
2018-11-14T06:50:35.915Z,43.17
2018-11-14T06:53:06.030Z,39.37
2018-11-14T06:55:34.819Z,39.90
2018-11-14T06:58:03.626Z,39.40
2018-11-14T07:00:33.450Z,40.20
2018-11-14T07:03:03.483Z,39.40
2018-11-14T07:05:32.397Z,42.20
2018-11-14T07:08:01.163Z,40.97
2018-11-14T07:10:32.099Z,36.47
2018-11-14T07:13:06.977Z,36.13
2018-11-14T07:15:36.505Z,37.43
2018-11-14T07:18:06.479Z,36.93
2018-11-14T07:20:37.687Z,34.70
2018-11-14T07:23:06.674Z,36.40
2018-11-14T07:25:35.408Z,35.47
2018-11-14T07:28:04.320Z,37.03
2018-11-14T07:30:34.132Z,30.17
2018-11-14T07:33:09.208Z,35.00
2018-11-14T07:35:38.175Z,33.60
2018-11-14T07:38:43.172Z,43.27
2018-11-14T07:41:15.352Z,31.27
2018-11-14T07:43:44.748Z,32.17
2018-11-14T07:46:14.670Z,36.37
2018-11-14T07:48:44.344Z,30.80
2018-11-14T07:51:13.031Z,30.33
2018-11-14T07:53:41.823Z,30.17
2018-11-14T07:56:10.502Z,30.37
2018-11-14T07:58:40.734Z,28.33
2018-11-14T08:01:10.659Z,31.30
2018-11-14T08:03:40.624Z,33.73
2018-11-14T08:06:09.419Z,35.00
2018-11-14T08:08:38.117Z,34.90
2018-11-14T08:11:07.615Z,31.77
2018-11-14T08:13:37.620Z,30.97
2018-11-14T08:16:09.581Z,31.67
2018-11-14T08:18:41.913Z,34.10
2018-11-14T08:21:14.823Z,36.47
2018-11-14T08:23:48.252Z,25.60
2018-11-14T08:26:18.127Z,34.90
2018-11-14T08:28:49.053Z,34.93
2018-11-14T08:31:19.627Z,32.67
2018-11-14T08:33:49.156Z,31.70
2018-11-14T08:36:20.969Z,26.63
2018-11-14T08:38:51.209Z,30.37
2018-11-14T08:41:21.186Z,34.43
2018-11-14T08:43:50.724Z,30.47
2018-11-14T08:46:20.473Z,30.60
2018-11-14T08:48:51.424Z,30.40
2018-11-14T08:51:22.214Z,31.47
2018-11-14T08:53:51.653Z,32.13
2018-11-14T08:56:25.479Z,33.43
2018-11-14T08:58:54.182Z,28.57
2018-11-14T09:01:23.104Z,30.03
2018-11-14T09:04:15.402Z,28.67
2018-11-14T09:06:44.940Z,28.30
2018-11-14T09:09:14.743Z,34.17
2018-11-14T09:11:45.757Z,24.20
2018-11-14T09:14:16.268Z,23.67
2018-11-14T09:16:46.117Z,27.03
2018-11-14T09:19:16.854Z,33.50
2018-11-14T09:21:45.836Z,23.30
2018-11-14T09:24:17.952Z,25.97
2018-11-14T09:26:48.454Z,26.00
2018-11-14T09:29:17.284Z,25.67
2018-11-14T09:31:49.446Z,27.50
2018-11-14T09:34:22.893Z,22.87
2018-11-14T09:36:52.766Z,25.40
2018-11-14T09:39:22.773Z,18.73
2018-11-14T09:41:53.966Z,24.67
2018-11-14T09:44:24.179Z,23.67
2018-11-14T09:46:53.102Z,28.73
2018-11-14T09:49:22.211Z,24.63
2018-11-14T09:51:53.142Z,24.00
2018-11-14T09:54:22.301Z,25.33
2018-11-14T09:56:53.514Z,22.77
2018-11-14T09:59:22.584Z,23.83
2018-11-14T10:01:55.526Z,24.43
2018-11-14T10:04:26.809Z,26.57
2018-11-14T10:06:56.149Z,22.57
2018-11-14T10:09:26.522Z,28.23
2018-11-14T10:11:56.912Z,22.00
2018-11-14T10:14:26.713Z,25.60
2018-11-14T10:16:57.400Z,20.97
2018-11-14T10:19:28.616Z,28.23
2018-11-14T10:21:58.210Z,26.77
2018-11-14T10:24:27.856Z,27.93
2018-11-14T10:26:58.736Z,29.83
2018-11-14T10:29:32.544Z,28.63
2018-11-14T10:32:03.800Z,26.13
2018-11-14T10:34:33.452Z,29.60
2018-11-14T10:37:07.114Z,26.60
2018-11-14T10:39:36.729Z,31.50
2018-11-14T10:42:07.016Z,24.73
2018-11-14T10:47:14.062Z,27.03
2018-11-14T10:49:43.938Z,29.17
2018-11-14T10:52:13.494Z,35.57
2018-11-14T10:54:56.446Z,27.70
2018-11-14T10:57:25.511Z,31.63
2018-11-14T10:59:57.820Z,36.87
2018-11-14T11:02:34.958Z,26.20
2018-11-14T11:05:09.872Z,29.83
2018-11-14T11:07:44.976Z,35.73
2018-11-14T11:10:18.974Z,32.53
2018-11-14T11:12:54.830Z,32.93
2018-11-14T11:15:32.814Z,36.00
2018-11-14T11:18:07.194Z,29.93
2018-11-14T11:20:38.496Z,31.33
2018-11-14T11:23:09.238Z,31.73
2018-11-14T11:25:41.760Z,32.10
2018-11-14T11:28:12.700Z,29.67
2018-11-14T11:30:43.830Z,34.97
2018-11-14T11:33:12.908Z,28.13
2018-11-14T11:35:43.152Z,30.97
2018-11-14T11:38:15.468Z,32.47
2018-11-14T11:40:44.940Z,28.20
2018-11-14T11:43:16.752Z,32.03
2018-11-14T11:45:49.078Z,27.50
2018-11-14T11:48:20.993Z,32.73
2018-11-14T11:50:55.455Z,34.57
2018-11-14T11:53:25.619Z,28.03
2018-11-14T11:55:55.833Z,29.03
2018-11-14T11:58:24.884Z,26.17
2018-11-14T12:00:55.173Z,31.03
2018-11-14T12:03:30.025Z,33.37
2018-11-14T12:06:00.135Z,32.70
2018-11-14T12:08:31.692Z,33.40
2018-11-14T12:11:02.443Z,36.17
2018-11-14T12:13:32.129Z,34.60
2018-11-14T12:16:01.133Z,36.13
2018-11-14T12:18:30.740Z,40.03
2018-11-14T12:20:59.914Z,39.70
2018-11-14T12:23:31.930Z,37.57
2018-11-14T12:26:00.985Z,37.20
2018-11-14T12:28:30.185Z,37.77
2018-11-14T12:30:59.403Z,35.10
2018-11-14T12:33:29.077Z,35.93
2018-11-14T12:35:58.096Z,40.07
2018-11-14T12:38:27.157Z,40.10
2018-11-14T12:40:57.454Z,41.23
2018-11-14T12:43:28.717Z,37.10
2018-11-14T12:45:59.499Z,38.60
2018-11-14T12:48:29.251Z,32.90
2018-11-14T12:50:59.796Z,37.60
2018-11-14T12:53:29.955Z,44.47
2018-11-14T12:56:00.075Z,40.67
2018-11-14T12:58:30.409Z,37.87
2018-11-14T13:01:00.006Z,45.03
2018-11-14T13:03:30.041Z,43.80
2018-11-14T13:06:02.155Z,41.50
2018-11-14T13:08:32.048Z,41.33
2018-11-14T13:11:03.603Z,41.63
2018-11-14T13:13:39.351Z,42.90
2018-11-14T13:16:08.490Z,40.07
2018-11-14T13:18:38.185Z,44.83
2018-11-14T13:21:07.836Z,54.13
2018-11-14T13:23:36.935Z,46.70
2018-11-14T13:26:08.245Z,50.83
2018-11-14T13:28:44.380Z,45.13
2018-11-14T13:31:13.457Z,45.00
2018-11-14T13:33:43.996Z,39.37
2018-11-14T13:36:13.861Z,35.57
2018-11-14T13:38:43.440Z,43.60
2018-11-14T13:41:13.508Z,37.13
2018-11-14T13:43:43.153Z,39.33
2018-11-14T13:46:12.962Z,38.03
2018-11-14T13:48:45.473Z,43.07
2018-11-14T13:51:17.712Z,42.07
2018-11-14T13:53:48.927Z,41.23
2018-11-14T13:56:22.849Z,48.27
2018-11-14T13:58:57.580Z,42.13
2018-11-14T14:01:38.103Z,51.73
2018-11-14T14:04:11.189Z,46.63
2018-11-14T14:06:42.377Z,48.20
2018-11-14T14:09:13.161Z,51.40
2018-11-14T14:11:42.743Z,54.20
2018-11-14T14:14:16.731Z,51.43
2018-11-14T14:16:46.000Z,46.87
2018-11-14T14:19:16.782Z,64.35
2018-11-14T14:21:45.596Z,53.27
2018-11-14T14:24:15.298Z,55.43
2018-11-14T14:26:44.067Z,55.50
2018-11-14T14:29:13.776Z,57.00
2018-11-14T14:31:42.559Z,53.50
2018-11-14T14:34:11.333Z,45.63
2018-11-14T14:36:40.087Z,54.27
2018-11-14T14:39:10.168Z,51.70
2018-11-14T14:41:38.924Z,48.07
2018-11-14T14:44:07.675Z,44.00
2018-11-14T14:46:36.521Z,41.73
2018-11-14T14:49:05.395Z,40.27
2018-11-14T14:51:34.117Z,44.27
2018-11-14T14:54:02.892Z,46.17
2018-11-14T14:56:31.907Z,49.07
2018-11-14T14:59:00.556Z,48.57
2018-11-14T15:01:29.325Z,55.70
2018-11-14T15:03:58.180Z,53.57
2018-11-14T15:06:26.913Z,52.40
2018-11-14T15:08:55.580Z,55.20
2018-11-14T15:11:24.845Z,50.97
2018-11-14T15:13:53.574Z,51.87
2018-11-14T15:16:22.304Z,60.40
2018-11-14T15:18:51.068Z,48.87
2018-11-14T15:21:19.841Z,52.27
2018-11-14T15:23:48.578Z,55.60
2018-11-14T15:26:17.545Z,53.23
2018-11-14T15:28:46.424Z,52.50
2018-11-14T15:31:15.099Z,53.17
2018-11-14T15:33:43.885Z,52.67
2018-11-14T15:36:12.648Z,52.37
2018-11-14T15:38:41.401Z,56.10
2018-11-14T15:41:10.193Z,57.17
2018-11-14T15:43:39.862Z,64.70
2018-11-14T15:46:08.675Z,60.17
2018-11-14T15:48:38.558Z,63.73
2018-11-14T15:51:07.309Z,63.53
2018-11-14T15:53:36.145Z,53.57
2018-11-14T15:56:05.067Z,60.23
2018-11-14T15:58:34.050Z,57.47
2018-11-14T16:01:02.929Z,50.17
2018-11-14T16:03:31.782Z,46.53
2018-11-14T16:06:00.600Z,58.53
2018-11-14T16:08:29.380Z,50.67
2018-11-14T16:10:58.543Z,54.73
2018-11-14T16:13:27.452Z,47.67
2018-11-14T16:15:57.070Z,46.47
2018-11-14T16:18:25.949Z,50.50
2018-11-14T16:20:54.751Z,44.23
2018-11-14T16:23:23.612Z,46.47
2018-11-14T16:25:52.529Z,47.97
2018-11-14T16:28:21.318Z,49.60
2018-11-14T16:30:50.198Z,48.00
2018-11-14T16:33:19.091Z,46.70
2018-11-14T16:35:47.812Z,47.40
2018-11-14T16:38:16.657Z,45.70
2018-11-14T16:40:45.399Z,44.73
2018-11-14T16:43:14.310Z,39.23
2018-11-14T16:45:43.699Z,38.47
2018-11-14T16:48:12.546Z,37.30
2018-11-14T16:50:41.369Z,38.53
2018-11-14T16:53:10.198Z,41.13
2018-11-14T16:55:39.128Z,41.70
2018-11-14T16:58:07.878Z,47.13
2018-11-14T17:00:36.864Z,48.13
2018-11-14T17:03:05.756Z,42.67
2018-11-14T17:05:34.621Z,41.77
2018-11-14T17:08:04.315Z,46.47
2018-11-14T17:10:33.062Z,44.73
2018-11-14T17:13:02.370Z,47.27
2018-11-14T17:15:31.167Z,46.10
2018-11-14T17:18:00.843Z,47.13
2018-11-14T17:20:29.714Z,56.07
2018-11-14T17:22:58.598Z,45.10
2018-11-14T17:25:27.448Z,46.17
2018-11-14T17:27:56.266Z,46.03
2018-11-14T17:30:27.266Z,54.97
2018-11-14T17:32:56.864Z,69.83
2018-11-14T17:35:25.699Z,57.07
2018-11-14T17:37:54.528Z,46.80
2018-11-14T17:40:26.413Z,56.40
2018-11-14T17:42:55.431Z,48.87
2018-11-14T17:45:28.073Z,45.63
2018-11-14T17:47:57.564Z,65.60
2018-11-14T17:50:28.772Z,60.67
2018-11-14T17:52:58.507Z,117.57
2018-11-14T17:55:27.372Z,62.60
2018-11-14T17:57:56.801Z,89.70
2018-11-14T18:00:26.923Z,64.47
2018-11-14T18:02:56.429Z,72.07
2018-11-14T18:05:26.404Z,57.97
2018-11-14T18:07:55.580Z,57.53
2018-11-14T18:10:25.618Z,49.57
2018-11-14T18:12:55.543Z,48.00
2018-11-14T18:15:24.376Z,49.47
2018-11-14T18:17:53.928Z,51.13
2018-11-14T18:20:25.071Z,53.67
2018-11-14T18:22:54.475Z,48.93
2018-11-14T18:25:23.342Z,49.70
2018-11-14T18:27:52.999Z,48.13
2018-11-14T18:30:24.699Z,50.90
2018-11-14T18:32:55.267Z,47.37
2018-11-14T18:35:24.614Z,52.97
2018-11-14T18:37:55.177Z,51.57
2018-11-14T18:40:25.370Z,48.57
2018-11-14T18:42:54.455Z,54.47
2018-11-14T18:45:25.823Z,51.23
2018-11-14T18:47:55.515Z,58.03
2018-11-14T18:50:24.973Z,59.23
2018-11-14T18:52:53.895Z,55.37
2018-11-14T18:55:23.897Z,48.30
2018-11-14T18:57:52.796Z,52.97
2018-11-14T19:00:23.134Z,52.93
2018-11-14T19:02:52.015Z,54.47
2018-11-14T19:05:21.127Z,52.53
2018-11-14T19:07:50.602Z,56.73
2018-11-14T19:10:21.225Z,51.53
2018-11-14T19:12:50.705Z,57.13
2018-11-14T19:15:20.866Z,51.17
2018-11-14T19:17:49.650Z,43.30
2018-11-14T19:20:20.080Z,53.27
2018-11-14T19:22:49.027Z,47.47
2018-11-14T19:25:19.582Z,49.07
2018-11-14T19:27:48.845Z,50.30
2018-11-14T19:30:19.120Z,48.47
2018-11-14T19:32:49.165Z,45.53
2018-11-14T19:35:18.169Z,48.57
2018-11-14T19:37:48.214Z,45.03
2018-11-14T19:40:18.986Z,51.80
2018-11-14T19:42:48.807Z,46.60
2018-11-14T19:45:19.348Z,52.33
2018-11-14T19:47:48.265Z,49.27
2018-11-14T19:50:19.498Z,73.27
2018-11-14T19:52:48.566Z,54.03
2018-11-14T19:55:18.811Z,49.83
2018-11-14T19:57:48.334Z,56.83
2018-11-14T20:00:20.629Z,53.57
2018-11-14T20:02:49.419Z,50.40
2018-11-14T20:05:18.836Z,46.23
2018-11-14T20:07:47.574Z,47.97
2018-11-14T20:10:20.717Z,46.90
2018-11-14T20:12:50.090Z,43.93
2018-11-14T20:15:36.524Z,46.20
2018-11-14T20:18:05.840Z,47.70
2018-11-14T20:20:36.136Z,45.60
2018-11-14T20:23:05.154Z,42.47
2018-11-14T20:25:34.216Z,39.90
2018-11-14T20:28:03.519Z,37.87
2018-11-14T20:30:33.860Z,44.83
2018-11-14T20:33:04.201Z,40.33
2018-11-14T20:35:33.829Z,39.00
2018-11-14T20:38:02.657Z,42.73
2018-11-14T20:40:32.999Z,43.83
2018-11-14T20:43:02.042Z,39.40
2018-11-14T20:45:32.236Z,40.53
2018-11-14T20:48:01.023Z,48.57
2018-11-14T20:50:29.833Z,41.47
2018-11-14T20:53:01.249Z,38.43
2018-11-14T20:55:30.416Z,38.13
2018-11-14T20:57:59.409Z,39.70
2018-11-14T21:00:29.642Z,40.40
2018-11-14T21:02:58.478Z,40.63
2018-11-14T21:05:28.046Z,39.70
2018-11-14T21:07:56.963Z,41.30
2018-11-14T21:10:27.133Z,44.20
2018-11-14T21:12:56.116Z,48.70
2018-11-14T21:15:26.262Z,47.80
2018-11-14T21:17:55.773Z,52.77
2018-11-14T21:20:24.490Z,51.43
2018-11-14T21:22:53.230Z,51.10
2018-11-14T21:25:23.009Z,56.37
2018-11-14T21:27:52.323Z,48.10
2018-11-14T21:30:22.364Z,57.00
2018-11-14T21:32:51.098Z,62.63
2018-11-14T21:35:22.519Z,50.50
2018-11-14T21:37:52.543Z,53.73
2018-11-14T21:40:21.352Z,54.00
2018-11-14T21:42:50.159Z,50.50
2018-11-14T21:45:20.214Z,54.27
2018-11-14T21:47:54.912Z,43.50
2018-11-14T21:50:24.851Z,49.00
2018-11-14T21:52:53.560Z,48.83
2018-11-14T21:55:22.290Z,47.57
2018-11-14T21:57:51.048Z,44.23
2018-11-14T22:00:21.049Z,45.60
2018-11-14T22:02:51.203Z,50.87
2018-11-14T22:05:19.888Z,43.53
2018-11-14T22:07:48.879Z,41.63
2018-11-14T22:10:18.864Z,53.30
2018-11-14T22:12:48.017Z,54.30
2018-11-14T22:15:18.373Z,48.87
2018-11-14T22:17:47.637Z,54.23
2018-11-14T22:20:17.660Z,56.37
2018-11-14T22:22:46.889Z,48.00
2018-11-14T22:25:17.020Z,48.33
2018-11-14T22:27:45.820Z,57.67
2018-11-14T22:30:17.970Z,49.13
2018-11-14T22:32:46.764Z,50.60
2018-11-14T22:35:16.725Z,50.70
2018-11-14T22:37:45.407Z,47.50
2018-11-14T22:40:15.891Z,43.60
2018-11-14T22:42:45.107Z,48.63
2018-11-14T22:45:16.055Z,44.93
2018-11-14T22:47:45.171Z,49.83
2018-11-14T22:50:15.249Z,44.53
2018-11-14T22:52:44.619Z,42.23
2018-11-14T22:55:14.487Z,43.80
2018-11-14T22:57:43.815Z,45.37
2018-11-14T23:00:22.240Z,45.00
2018-11-14T23:02:52.166Z,45.57
2018-11-14T23:05:20.995Z,43.43
2018-11-14T23:07:51.103Z,42.57
2018-11-14T23:10:20.764Z,39.60
2018-11-14T23:12:49.872Z,42.43
2018-11-14T23:15:19.466Z,38.83
2018-11-14T23:17:48.300Z,40.27
2018-11-14T23:20:17.451Z,38.77
2018-11-14T23:22:47.063Z,40.40
2018-11-14T23:25:16.179Z,38.30
2018-11-14T23:27:47.066Z,38.47
2018-11-14T23:30:16.848Z,37.73
2018-11-14T23:32:46.821Z,41.27
2018-11-14T23:35:16.425Z,43.40
2018-11-14T23:37:46.969Z,38.40
2018-11-14T23:40:15.706Z,33.33
2018-11-14T23:42:44.473Z,43.27
2018-11-14T23:45:14.440Z,48.57
2018-11-14T23:47:43.975Z,46.57
2018-11-14T23:50:15.604Z,42.90
2018-11-14T23:52:45.262Z,46.67
2018-11-14T23:55:14.506Z,48.90
2018-11-14T23:57:43.196Z,57.63
